sensor_id;sensor_type;location;lat;lon;timestamp;P1;durP1;ratioP1;P2;durP2;ratioP2
71108;SDS011;59614;51.012;-1.648;2023-02-28T00:01:31;7.50;;;2.88;;
71108;SDS011;59614;51.012;-1.648;2023-02-28T00:03:57;9.27;;;2.92;;
71108;SDS011;59614;51.012;-1.648;2023-02-28T00:06:22;8.60;;;2.75;;
71108;SDS011;59614;51.012;-1.648;2023-02-28T00:08:49;6.40;;;2.65;;
71108;SDS011;59614;51.012;-1.648;2023-02-28T00:11:15;9.45;;;2.75;;
71108;SDS011;59614;51.012;-1.648;2023-02-28T00:13:42;6.57;;;2.67;;
71108;SDS011;59614;51.012;-1.648;2023-02-28T00:16:12;5.18;;;2.47;;
71108;SDS011;59614;51.012;-1.648;2023-02-28T00:18:40;10.88;;;3.22;;
71108;SDS011;59614;51.012;-1.648;2023-02-28T00:21:06;7.70;;;3.15;;
71108;SDS011;59614;51.012;-1.648;2023-02-28T00:23:32;4.82;;;3.22;;
71108;SDS011;59614;51.012;-1.648;2023-02-28T00:25:58;6.13;;;2.53;;
71108;SDS011;59614;51.012;-1.648;2023-02-28T00:28:24;6.13;;;2.50;;
71108;SDS011;59614;51.012;-1.648;2023-02-28T00:30:49;10.35;;;2.85;;
71108;SDS011;59614;51.012;-1.648;2023-02-28T00:33:15;5.80;;;2.35;;
71108;SDS011;59614;51.012;-1.648;2023-02-28T00:35:40;5.82;;;2.33;;
71108;SDS011;59614;51.012;-1.648;2023-02-28T00:38:06;7.75;;;2.35;;
71108;SDS011;59614;51.012;-1.648;2023-02-28T00:40:31;6.95;;;2.78;;
71108;SDS011;59614;51.012;-1.648;2023-02-28T00:42:57;6.00;;;2.50;;
71108;SDS011;59614;51.012;-1.648;2023-02-28T00:45:22;5.22;;;2.42;;
71108;SDS011;59614;51.012;-1.648;2023-02-28T00:47:48;5.68;;;2.58;;
71108;SDS011;59614;51.012;-1.648;2023-02-28T00:50:17;6.00;;;2.35;;
71108;SDS011;59614;51.012;-1.648;2023-02-28T00:52:45;8.57;;;2.78;;
71108;SDS011;59614;51.012;-1.648;2023-02-28T00:55:11;6.15;;;2.58;;
71108;SDS011;59614;51.012;-1.648;2023-02-28T00:57:37;7.93;;;2.90;;
71108;SDS011;59614;51.012;-1.648;2023-02-28T01:00:02;6.80;;;2.50;;
71108;SDS011;59614;51.012;-1.648;2023-02-28T01:02:28;7.50;;;2.33;;
71108;SDS011;59614;51.012;-1.648;2023-02-28T01:04:54;10.80;;;3.78;;
71108;SDS011;59614;51.012;-1.648;2023-02-28T01:07:19;3.97;;;2.17;;
71108;SDS011;59614;51.012;-1.648;2023-02-28T01:09:45;7.32;;;2.70;;
71108;SDS011;59614;51.012;-1.648;2023-02-28T01:12:10;8.98;;;2.55;;
71108;SDS011;59614;51.012;-1.648;2023-02-28T01:14:36;9.32;;;2.65;;
71108;SDS011;59614;51.012;-1.648;2023-02-28T01:17:01;7.82;;;2.58;;
71108;SDS011;59614;51.012;-1.648;2023-02-28T01:19:27;4.65;;;2.60;;
71108;SDS011;59614;51.012;-1.648;2023-02-28T01:21:52;8.07;;;2.55;;
71108;SDS011;59614;51.012;-1.648;2023-02-28T01:24:18;15.32;;;2.65;;
71108;SDS011;59614;51.012;-1.648;2023-02-28T01:26:44;8.23;;;2.70;;
71108;SDS011;59614;51.012;-1.648;2023-02-28T01:29:09;9.93;;;3.03;;
71108;SDS011;59614;51.012;-1.648;2023-02-28T01:31:35;9.57;;;2.58;;
71108;SDS011;59614;51.012;-1.648;2023-02-28T01:34:00;8.13;;;2.60;;
71108;SDS011;59614;51.012;-1.648;2023-02-28T01:36:26;6.82;;;2.50;;
71108;SDS011;59614;51.012;-1.648;2023-02-28T01:38:51;7.18;;;2.50;;
71108;SDS011;59614;51.012;-1.648;2023-02-28T01:41:19;5.93;;;2.60;;
71108;SDS011;59614;51.012;-1.648;2023-02-28T01:46:13;8.10;;;2.92;;
71108;SDS011;59614;51.012;-1.648;2023-02-28T01:48:52;6.45;;;2.40;;
71108;SDS011;59614;51.012;-1.648;2023-02-28T01:53:58;9.15;;;2.75;;
71108;SDS011;59614;51.012;-1.648;2023-02-28T01:56:28;6.43;;;2.40;;
71108;SDS011;59614;51.012;-1.648;2023-02-28T02:01:21;10.73;;;2.83;;
71108;SDS011;59614;51.012;-1.648;2023-02-28T02:03:50;11.00;;;2.45;;
71108;SDS011;59614;51.012;-1.648;2023-02-28T02:06:22;11.50;;;2.83;;
71108;SDS011;59614;51.012;-1.648;2023-02-28T02:08:49;8.10;;;2.42;;
71108;SDS011;59614;51.012;-1.648;2023-02-28T02:11:17;11.25;;;2.50;;
71108;SDS011;59614;51.012;-1.648;2023-02-28T02:35:23;8.60;;;3.20;;
71108;SDS011;59614;51.012;-1.648;2023-02-28T02:37:59;9.85;;;2.90;;
71108;SDS011;59614;51.012;-1.648;2023-02-28T02:46:49;12.50;;;3.30;;
71108;SDS011;59614;51.012;-1.648;2023-02-28T02:49:21;11.88;;;3.50;;
71108;SDS011;59614;51.012;-1.648;2023-02-28T02:51:51;15.13;;;3.35;;
71108;SDS011;59614;51.012;-1.648;2023-02-28T02:54:22;12.10;;;3.40;;
71108;SDS011;59614;51.012;-1.648;2023-02-28T02:56:54;13.30;;;3.50;;
71108;SDS011;59614;51.012;-1.648;2023-02-28T02:59:22;11.90;;;3.40;;
71108;SDS011;59614;51.012;-1.648;2023-02-28T03:01:50;9.15;;;3.53;;
71108;SDS011;59614;51.012;-1.648;2023-02-28T03:04:19;10.73;;;3.80;;
71108;SDS011;59614;51.012;-1.648;2023-02-28T03:06:47;11.43;;;3.50;;
71108;SDS011;59614;51.012;-1.648;2023-02-28T03:09:15;7.53;;;3.03;;
71108;SDS011;59614;51.012;-1.648;2023-02-28T03:11:40;17.73;;;3.28;;
71108;SDS011;59614;51.012;-1.648;2023-02-28T03:14:20;16.77;;;3.83;;
71108;SDS011;59614;51.012;-1.648;2023-02-28T03:30:41;12.90;;;4.20;;
71108;SDS011;59614;51.012;-1.648;2023-02-28T03:33:19;15.23;;;3.88;;
71108;SDS011;59614;51.012;-1.648;2023-02-28T03:35:56;13.48;;;4.22;;
71108;SDS011;59614;51.012;-1.648;2023-02-28T03:41:14;17.15;;;4.40;;
71108;SDS011;59614;51.012;-1.648;2023-02-28T03:44:06;10.40;;;3.88;;
71108;SDS011;59614;51.012;-1.648;2023-02-28T03:46:40;16.35;;;5.03;;
71108;SDS011;59614;51.012;-1.648;2023-02-28T03:49:14;16.52;;;4.63;;
71108;SDS011;59614;51.012;-1.648;2023-02-28T03:51:47;18.85;;;4.78;;
71108;SDS011;59614;51.012;-1.648;2023-02-28T03:54:18;14.57;;;4.40;;
71108;SDS011;59614;51.012;-1.648;2023-02-28T03:56:50;8.85;;;4.10;;
71108;SDS011;59614;51.012;-1.648;2023-02-28T03:59:22;17.48;;;5.70;;
71108;SDS011;59614;51.012;-1.648;2023-02-28T04:01:53;11.15;;;4.53;;
71108;SDS011;59614;51.012;-1.648;2023-02-28T04:04:20;13.57;;;5.13;;
71108;SDS011;59614;51.012;-1.648;2023-02-28T04:06:47;13.57;;;5.65;;
71108;SDS011;59614;51.012;-1.648;2023-02-28T04:09:15;13.40;;;4.97;;
71108;SDS011;59614;51.012;-1.648;2023-02-28T04:11:45;15.13;;;5.25;;
71108;SDS011;59614;51.012;-1.648;2023-02-28T04:14:16;16.65;;;5.40;;
71108;SDS011;59614;51.012;-1.648;2023-02-28T04:16:42;15.70;;;5.55;;
71108;SDS011;59614;51.012;-1.648;2023-02-28T04:19:09;11.45;;;5.65;;
71108;SDS011;59614;51.012;-1.648;2023-02-28T04:21:37;13.80;;;5.63;;
71108;SDS011;59614;51.012;-1.648;2023-02-28T04:24:04;15.25;;;5.97;;
71108;SDS011;59614;51.012;-1.648;2023-02-28T04:26:31;13.88;;;5.28;;
71108;SDS011;59614;51.012;-1.648;2023-02-28T04:28:57;16.05;;;5.68;;
71108;SDS011;59614;51.012;-1.648;2023-02-28T04:31:23;19.65;;;6.13;;
71108;SDS011;59614;51.012;-1.648;2023-02-28T04:33:49;15.25;;;6.13;;
71108;SDS011;59614;51.012;-1.648;2023-02-28T04:36:14;13.80;;;6.47;;
71108;SDS011;59614;51.012;-1.648;2023-02-28T04:38:42;16.20;;;6.40;;
71108;SDS011;59614;51.012;-1.648;2023-02-28T04:41:08;16.02;;;6.65;;
71108;SDS011;59614;51.012;-1.648;2023-02-28T04:43:34;17.58;;;5.80;;
71108;SDS011;59614;51.012;-1.648;2023-02-28T04:46:00;18.83;;;5.80;;
71108;SDS011;59614;51.012;-1.648;2023-02-28T04:48:27;17.38;;;6.63;;
71108;SDS011;59614;51.012;-1.648;2023-02-28T04:50:54;11.55;;;6.20;;
71108;SDS011;59614;51.012;-1.648;2023-02-28T04:53:20;14.60;;;5.90;;
71108;SDS011;59614;51.012;-1.648;2023-02-28T04:55:46;16.63;;;7.30;;
71108;SDS011;59614;51.012;-1.648;2023-02-28T04:58:14;16.63;;;7.10;;
71108;SDS011;59614;51.012;-1.648;2023-02-28T05:00:41;18.13;;;7.18;;
71108;SDS011;59614;51.012;-1.648;2023-02-28T05:03:09;14.63;;;7.20;;
71108;SDS011;59614;51.012;-1.648;2023-02-28T05:05:35;18.52;;;7.10;;
71108;SDS011;59614;51.012;-1.648;2023-02-28T05:08:00;17.73;;;7.90;;
71108;SDS011;59614;51.012;-1.648;2023-02-28T05:10:26;19.38;;;7.95;;
71108;SDS011;59614;51.012;-1.648;2023-02-28T05:12:51;18.70;;;7.88;;
71108;SDS011;59614;51.012;-1.648;2023-02-28T05:15:17;21.55;;;7.40;;
71108;SDS011;59614;51.012;-1.648;2023-02-28T05:17:42;16.23;;;8.05;;
71108;SDS011;59614;51.012;-1.648;2023-02-28T05:20:08;18.60;;;8.40;;
71108;SDS011;59614;51.012;-1.648;2023-02-28T05:22:36;17.23;;;8.23;;
71108;SDS011;59614;51.012;-1.648;2023-02-28T05:25:02;17.15;;;7.65;;
71108;SDS011;59614;51.012;-1.648;2023-02-28T05:27:29;14.53;;;7.50;;
71108;SDS011;59614;51.012;-1.648;2023-02-28T05:29:55;13.70;;;7.30;;
71108;SDS011;59614;51.012;-1.648;2023-02-28T05:32:21;14.80;;;7.50;;
71108;SDS011;59614;51.012;-1.648;2023-02-28T05:34:46;17.42;;;7.18;;
71108;SDS011;59614;51.012;-1.648;2023-02-28T05:37:12;18.15;;;7.40;;
71108;SDS011;59614;51.012;-1.648;2023-02-28T05:39:39;13.38;;;7.38;;
71108;SDS011;59614;51.012;-1.648;2023-02-28T05:42:04;12.85;;;6.85;;
71108;SDS011;59614;51.012;-1.648;2023-02-28T05:44:30;17.33;;;7.63;;
71108;SDS011;59614;51.012;-1.648;2023-02-28T05:46:55;14.45;;;7.13;;
71108;SDS011;59614;51.012;-1.648;2023-02-28T05:49:21;15.63;;;7.03;;
71108;SDS011;59614;51.012;-1.648;2023-02-28T05:51:47;12.20;;;6.45;;
71108;SDS011;59614;51.012;-1.648;2023-02-28T05:54:12;14.75;;;6.80;;
71108;SDS011;59614;51.012;-1.648;2023-02-28T05:56:38;16.25;;;6.70;;
71108;SDS011;59614;51.012;-1.648;2023-02-28T05:59:09;14.70;;;6.68;;
71108;SDS011;59614;51.012;-1.648;2023-02-28T06:01:36;15.68;;;7.07;;
71108;SDS011;59614;51.012;-1.648;2023-02-28T06:04:06;15.10;;;6.18;;
71108;SDS011;59614;51.012;-1.648;2023-02-28T06:06:34;12.63;;;6.75;;
71108;SDS011;59614;51.012;-1.648;2023-02-28T06:09:00;17.55;;;6.72;;
71108;SDS011;59614;51.012;-1.648;2023-02-28T06:11:26;20.08;;;7.35;;
71108;SDS011;59614;51.012;-1.648;2023-02-28T06:13:53;19.08;;;6.70;;
71108;SDS011;59614;51.012;-1.648;2023-02-28T06:16:20;14.38;;;6.15;;
71108;SDS011;59614;51.012;-1.648;2023-02-28T06:18:46;14.73;;;6.07;;
71108;SDS011;59614;51.012;-1.648;2023-02-28T06:21:12;16.40;;;6.68;;
71108;SDS011;59614;51.012;-1.648;2023-02-28T06:23:37;12.50;;;6.28;;
71108;SDS011;59614;51.012;-1.648;2023-02-28T06:26:03;16.38;;;6.47;;
71108;SDS011;59614;51.012;-1.648;2023-02-28T06:28:29;17.15;;;6.75;;
71108;SDS011;59614;51.012;-1.648;2023-02-28T06:30:54;11.18;;;6.30;;
71108;SDS011;59614;51.012;-1.648;2023-02-28T06:33:20;12.43;;;6.15;;
71108;SDS011;59614;51.012;-1.648;2023-02-28T06:35:51;15.32;;;6.47;;
71108;SDS011;59614;51.012;-1.648;2023-02-28T06:38:17;15.35;;;6.68;;
71108;SDS011;59614;51.012;-1.648;2023-02-28T06:40:43;15.75;;;6.32;;
71108;SDS011;59614;51.012;-1.648;2023-02-28T06:43:09;16.02;;;6.65;;
71108;SDS011;59614;51.012;-1.648;2023-02-28T06:45:41;11.82;;;6.05;;
71108;SDS011;59614;51.012;-1.648;2023-02-28T06:48:07;13.88;;;6.20;;
71108;SDS011;59614;51.012;-1.648;2023-02-28T06:50:32;15.40;;;6.35;;
71108;SDS011;59614;51.012;-1.648;2023-02-28T06:52:58;15.70;;;6.57;;
71108;SDS011;59614;51.012;-1.648;2023-02-28T06:55:23;10.50;;;5.63;;
71108;SDS011;59614;51.012;-1.648;2023-02-28T06:57:49;12.82;;;5.82;;
71108;SDS011;59614;51.012;-1.648;2023-02-28T07:00:15;10.88;;;5.80;;
71108;SDS011;59614;51.012;-1.648;2023-02-28T07:02:41;12.90;;;5.43;;
71108;SDS011;59614;51.012;-1.648;2023-02-28T07:05:07;14.00;;;5.50;;
71108;SDS011;59614;51.012;-1.648;2023-02-28T07:07:32;9.82;;;5.47;;
71108;SDS011;59614;51.012;-1.648;2023-02-28T07:09:59;9.95;;;5.05;;
71108;SDS011;59614;51.012;-1.648;2023-02-28T07:12:24;11.75;;;5.68;;
71108;SDS011;59614;51.012;-1.648;2023-02-28T07:14:50;9.75;;;5.18;;
71108;SDS011;59614;51.012;-1.648;2023-02-28T07:17:15;10.77;;;5.43;;
71108;SDS011;59614;51.012;-1.648;2023-02-28T07:19:41;10.00;;;5.22;;
71108;SDS011;59614;51.012;-1.648;2023-02-28T07:22:06;10.05;;;4.75;;
71108;SDS011;59614;51.012;-1.648;2023-02-28T07:24:32;8.55;;;4.70;;
71108;SDS011;59614;51.012;-1.648;2023-02-28T07:26:58;12.77;;;5.07;;
71108;SDS011;59614;51.012;-1.648;2023-02-28T07:29:24;10.57;;;5.10;;
71108;SDS011;59614;51.012;-1.648;2023-02-28T07:31:49;7.90;;;4.70;;
71108;SDS011;59614;51.012;-1.648;2023-02-28T07:34:18;7.75;;;4.45;;
71108;SDS011;59614;51.012;-1.648;2023-02-28T07:36:44;8.13;;;4.32;;
71108;SDS011;59614;51.012;-1.648;2023-02-28T07:39:09;11.07;;;4.80;;
71108;SDS011;59614;51.012;-1.648;2023-02-28T07:41:35;15.05;;;5.07;;
71108;SDS011;59614;51.012;-1.648;2023-02-28T07:44:04;11.00;;;4.55;;
71108;SDS011;59614;51.012;-1.648;2023-02-28T07:46:30;9.60;;;4.57;;
71108;SDS011;59614;51.012;-1.648;2023-02-28T07:49:00;8.85;;;4.32;;
71108;SDS011;59614;51.012;-1.648;2023-02-28T07:51:26;9.80;;;4.72;;
71108;SDS011;59614;51.012;-1.648;2023-02-28T07:53:51;10.52;;;4.43;;
71108;SDS011;59614;51.012;-1.648;2023-02-28T07:56:16;9.35;;;4.18;;
71108;SDS011;59614;51.012;-1.648;2023-02-28T07:58:42;11.20;;;4.15;;
71108;SDS011;59614;51.012;-1.648;2023-02-28T08:01:08;7.95;;;4.03;;
71108;SDS011;59614;51.012;-1.648;2023-02-28T08:03:35;9.88;;;4.30;;
71108;SDS011;59614;51.012;-1.648;2023-02-28T08:06:02;9.27;;;4.28;;
71108;SDS011;59614;51.012;-1.648;2023-02-28T08:08:29;9.75;;;4.50;;
71108;SDS011;59614;51.012;-1.648;2023-02-28T08:10:58;7.60;;;3.72;;
71108;SDS011;59614;51.012;-1.648;2023-02-28T08:13:28;8.68;;;4.20;;
71108;SDS011;59614;51.012;-1.648;2023-02-28T08:15:54;6.55;;;4.05;;
71108;SDS011;59614;51.012;-1.648;2023-02-28T08:18:21;6.35;;;4.00;;
71108;SDS011;59614;51.012;-1.648;2023-02-28T08:20:47;7.55;;;4.28;;
71108;SDS011;59614;51.012;-1.648;2023-02-28T08:23:13;7.45;;;4.30;;
71108;SDS011;59614;51.012;-1.648;2023-02-28T08:25:38;6.45;;;4.38;;
71108;SDS011;59614;51.012;-1.648;2023-02-28T08:28:04;8.45;;;4.88;;
71108;SDS011;59614;51.012;-1.648;2023-02-28T08:30:29;12.43;;;4.18;;
71108;SDS011;59614;51.012;-1.648;2023-02-28T08:32:55;10.82;;;4.57;;
71108;SDS011;59614;51.012;-1.648;2023-02-28T08:35:20;7.85;;;4.55;;
71108;SDS011;59614;51.012;-1.648;2023-02-28T08:37:49;7.40;;;4.00;;
71108;SDS011;59614;51.012;-1.648;2023-02-28T08:40:15;9.38;;;4.32;;
71108;SDS011;59614;51.012;-1.648;2023-02-28T08:45:12;9.07;;;4.10;;
71108;SDS011;59614;51.012;-1.648;2023-02-28T08:47:39;8.20;;;4.65;;
71108;SDS011;59614;51.012;-1.648;2023-02-28T08:50:05;11.18;;;4.03;;
71108;SDS011;59614;51.012;-1.648;2023-02-28T08:52:31;6.32;;;3.80;;
71108;SDS011;59614;51.012;-1.648;2023-02-28T08:54:56;6.32;;;3.70;;
71108;SDS011;59614;51.012;-1.648;2023-02-28T08:57:22;7.63;;;3.90;;
71108;SDS011;59614;51.012;-1.648;2023-02-28T08:59:47;7.85;;;4.20;;
71108;SDS011;59614;51.012;-1.648;2023-02-28T09:02:13;6.75;;;3.67;;
71108;SDS011;59614;51.012;-1.648;2023-02-28T09:04:39;8.55;;;4.13;;
71108;SDS011;59614;51.012;-1.648;2023-02-28T09:07:05;7.20;;;3.78;;
71108;SDS011;59614;51.012;-1.648;2023-02-28T09:09:31;10.32;;;4.00;;
71108;SDS011;59614;51.012;-1.648;2023-02-28T09:11:56;6.43;;;3.60;;
71108;SDS011;59614;51.012;-1.648;2023-02-28T09:14:22;5.78;;;3.78;;
71108;SDS011;59614;51.012;-1.648;2023-02-28T09:16:48;6.80;;;3.80;;
71108;SDS011;59614;51.012;-1.648;2023-02-28T09:19:13;7.93;;;3.97;;
71108;SDS011;59614;51.012;-1.648;2023-02-28T09:21:38;7.70;;;3.85;;
71108;SDS011;59614;51.012;-1.648;2023-02-28T09:24:04;9.95;;;3.97;;
71108;SDS011;59614;51.012;-1.648;2023-02-28T09:26:30;7.95;;;4.22;;
71108;SDS011;59614;51.012;-1.648;2023-02-28T09:28:56;7.38;;;4.18;;
71108;SDS011;59614;51.012;-1.648;2023-02-28T09:31:24;7.97;;;4.18;;
71108;SDS011;59614;51.012;-1.648;2023-02-28T09:33:52;7.32;;;4.32;;
71108;SDS011;59614;51.012;-1.648;2023-02-28T09:36:19;6.20;;;4.05;;
71108;SDS011;59614;51.012;-1.648;2023-02-28T09:38:45;8.88;;;4.00;;
71108;SDS011;59614;51.012;-1.648;2023-02-28T09:41:15;8.13;;;4.32;;
71108;SDS011;59614;51.012;-1.648;2023-02-28T09:43:49;7.53;;;4.10;;
71108;SDS011;59614;51.012;-1.648;2023-02-28T09:48:58;7.07;;;4.57;;
71108;SDS011;59614;51.012;-1.648;2023-02-28T09:51:30;11.68;;;4.50;;
71108;SDS011;59614;51.012;-1.648;2023-02-28T09:54:09;7.15;;;4.72;;
71108;SDS011;59614;51.012;-1.648;2023-02-28T09:56:51;8.90;;;4.90;;
71108;SDS011;59614;51.012;-1.648;2023-02-28T10:07:29;8.48;;;5.72;;
71108;SDS011;59614;51.012;-1.648;2023-02-28T10:10:26;9.23;;;5.57;;
71108;SDS011;59614;51.012;-1.648;2023-02-28T10:12:55;9.30;;;5.38;;
71108;SDS011;59614;51.012;-1.648;2023-02-28T10:15:25;10.10;;;5.55;;
71108;SDS011;59614;51.012;-1.648;2023-02-28T10:17:55;9.60;;;5.22;;
71108;SDS011;59614;51.012;-1.648;2023-02-28T10:20:25;9.32;;;5.35;;
71108;SDS011;59614;51.012;-1.648;2023-02-28T10:26:00;6.30;;;3.83;;
71108;SDS011;59614;51.012;-1.648;2023-02-28T10:28:30;6.55;;;3.70;;
71108;SDS011;59614;51.012;-1.648;2023-02-28T10:30:56;6.13;;;3.75;;
71108;SDS011;59614;51.012;-1.648;2023-02-28T10:35:56;3.92;;;2.30;;
71108;SDS011;59614;51.012;-1.648;2023-02-28T10:41:03;3.88;;;2.10;;
71108;SDS011;59614;51.012;-1.648;2023-02-28T10:43:29;2.88;;;2.00;;
71108;SDS011;59614;51.012;-1.648;2023-02-28T10:48:39;3.58;;;2.30;;
71108;SDS011;59614;51.012;-1.648;2023-02-28T10:51:06;3.00;;;2.10;;
71108;SDS011;59614;51.012;-1.648;2023-02-28T10:53:54;3.92;;;2.10;;
71108;SDS011;59614;51.012;-1.648;2023-02-28T10:56:20;3.55;;;2.20;;
71108;SDS011;59614;51.012;-1.648;2023-02-28T10:59:11;3.83;;;2.50;;
71108;SDS011;59614;51.012;-1.648;2023-02-28T11:01:51;7.05;;;3.80;;
71108;SDS011;59614;51.012;-1.648;2023-02-28T11:04:19;4.32;;;2.58;;
71108;SDS011;59614;51.012;-1.648;2023-02-28T11:07:33;4.15;;;2.60;;
71108;SDS011;59614;51.012;-1.648;2023-02-28T11:09:34;4.63;;;2.50;;
71108;SDS011;59614;51.012;-1.648;2023-02-28T11:12:04;4.53;;;2.60;;
71108;SDS011;59614;51.012;-1.648;2023-02-28T11:14:47;5.40;;;2.63;;
71108;SDS011;59614;51.012;-1.648;2023-02-28T11:17:22;4.70;;;2.78;;
71108;SDS011;59614;51.012;-1.648;2023-02-28T11:22:24;7.10;;;3.88;;
71108;SDS011;59614;51.012;-1.648;2023-02-28T11:24:57;6.63;;;3.30;;
71108;SDS011;59614;51.012;-1.648;2023-02-28T11:29:54;4.30;;;2.53;;
71108;SDS011;59614;51.012;-1.648;2023-02-28T11:32:20;7.70;;;2.63;;
71108;SDS011;59614;51.012;-1.648;2023-02-28T11:35:00;4.43;;;2.42;;
71108;SDS011;59614;51.012;-1.648;2023-02-28T11:37:35;5.18;;;2.47;;
71108;SDS011;59614;51.012;-1.648;2023-02-28T11:40:00;5.25;;;2.45;;
71108;SDS011;59614;51.012;-1.648;2023-02-28T11:53:14;6.10;;;2.50;;
71108;SDS011;59614;51.012;-1.648;2023-02-28T11:58:35;5.68;;;2.08;;
71108;SDS011;59614;51.012;-1.648;2023-02-28T12:06:46;3.30;;;1.77;;
71108;SDS011;59614;51.012;-1.648;2023-02-28T12:09:18;4.55;;;2.00;;
71108;SDS011;59614;51.012;-1.648;2023-02-28T12:12:00;3.53;;;2.13;;
71108;SDS011;59614;51.012;-1.648;2023-02-28T12:26:02;5.38;;;2.50;;
71108;SDS011;59614;51.012;-1.648;2023-02-28T12:28:31;3.97;;;2.20;;
71108;SDS011;59614;51.012;-1.648;2023-02-28T12:31:04;5.00;;;2.10;;
71108;SDS011;59614;51.012;-1.648;2023-02-28T12:33:38;3.00;;;2.10;;
71108;SDS011;59614;51.012;-1.648;2023-02-28T12:36:13;4.22;;;2.33;;
71108;SDS011;59614;51.012;-1.648;2023-02-28T12:38:45;3.42;;;2.15;;
71108;SDS011;59614;51.012;-1.648;2023-02-28T12:41:16;4.40;;;2.50;;
71108;SDS011;59614;51.012;-1.648;2023-02-28T12:43:49;5.25;;;2.50;;
71108;SDS011;59614;51.012;-1.648;2023-02-28T12:46:22;5.65;;;2.80;;
71108;SDS011;59614;51.012;-1.648;2023-02-28T12:48:57;3.95;;;2.67;;
71108;SDS011;59614;51.012;-1.648;2023-02-28T12:51:25;3.83;;;2.63;;
71108;SDS011;59614;51.012;-1.648;2023-02-28T12:54:04;4.97;;;2.65;;
71108;SDS011;59614;51.012;-1.648;2023-02-28T12:59:27;6.30;;;3.15;;
71108;SDS011;59614;51.012;-1.648;2023-02-28T13:10:48;6.00;;;3.00;;
71108;SDS011;59614;51.012;-1.648;2023-02-28T13:13:22;7.07;;;3.40;;
71108;SDS011;59614;51.012;-1.648;2023-02-28T13:16:00;5.75;;;3.20;;
71108;SDS011;59614;51.012;-1.648;2023-02-28T13:18:39;4.68;;;2.92;;
71108;SDS011;59614;51.012;-1.648;2023-02-28T13:21:09;8.57;;;3.50;;
71108;SDS011;59614;51.012;-1.648;2023-02-28T13:42:35;5.22;;;3.00;;
71108;SDS011;59614;51.012;-1.648;2023-02-28T13:45:22;4.97;;;3.03;;
71108;SDS011;59614;51.012;-1.648;2023-02-28T13:48:00;4.72;;;3.15;;
71108;SDS011;59614;51.012;-1.648;2023-02-28T14:01:07;5.32;;;3.00;;
71108;SDS011;59614;51.012;-1.648;2023-02-28T14:03:49;5.75;;;3.20;;
71108;SDS011;59614;51.012;-1.648;2023-02-28T14:06:27;5.03;;;3.10;;
71108;SDS011;59614;51.012;-1.648;2023-02-28T14:11:33;9.10;;;3.67;;
71108;SDS011;59614;51.012;-1.648;2023-02-28T14:14:04;5.60;;;3.38;;
71108;SDS011;59614;51.012;-1.648;2023-02-28T14:16:41;6.82;;;3.45;;
71108;SDS011;59614;51.012;-1.648;2023-02-28T14:19:21;5.47;;;3.45;;
71108;SDS011;59614;51.012;-1.648;2023-02-28T14:30:03;6.25;;;3.78;;
71108;SDS011;59614;51.012;-1.648;2023-02-28T14:32:54;6.15;;;3.30;;
71108;SDS011;59614;51.012;-1.648;2023-02-28T14:38:24;6.03;;;3.72;;
71108;SDS011;59614;51.012;-1.648;2023-02-28T14:40:55;9.35;;;4.00;;
71108;SDS011;59614;51.012;-1.648;2023-02-28T14:43:24;6.60;;;3.88;;
71108;SDS011;59614;51.012;-1.648;2023-02-28T14:48:19;6.45;;;3.72;;
71108;SDS011;59614;51.012;-1.648;2023-02-28T14:50:49;6.82;;;3.72;;
71108;SDS011;59614;51.012;-1.648;2023-02-28T14:53:21;6.30;;;3.50;;
71108;SDS011;59614;51.012;-1.648;2023-02-28T14:55:48;5.57;;;3.67;;
71108;SDS011;59614;51.012;-1.648;2023-02-28T14:58:25;5.43;;;3.50;;
71108;SDS011;59614;51.012;-1.648;2023-02-28T15:00:56;5.75;;;3.45;;
71108;SDS011;59614;51.012;-1.648;2023-02-28T15:03:27;6.60;;;3.97;;
71108;SDS011;59614;51.012;-1.648;2023-02-28T15:06:03;7.15;;;3.47;;
71108;SDS011;59614;51.012;-1.648;2023-02-28T15:08:31;6.85;;;3.65;;
71108;SDS011;59614;51.012;-1.648;2023-02-28T15:24:07;5.57;;;3.42;;
71108;SDS011;59614;51.012;-1.648;2023-02-28T15:26:42;5.63;;;3.50;;
71108;SDS011;59614;51.012;-1.648;2023-02-28T15:29:15;6.28;;;3.40;;
71108;SDS011;59614;51.012;-1.648;2023-02-28T15:32:05;8.60;;;3.45;;
71108;SDS011;59614;51.012;-1.648;2023-02-28T15:34:35;5.68;;;3.47;;
71108;SDS011;59614;51.012;-1.648;2023-02-28T15:37:06;6.57;;;3.63;;
71108;SDS011;59614;51.012;-1.648;2023-02-28T15:40:04;6.68;;;3.58;;
71108;SDS011;59614;51.012;-1.648;2023-02-28T15:42:37;6.63;;;3.90;;
71108;SDS011;59614;51.012;-1.648;2023-02-28T15:45:02;6.78;;;3.50;;
71108;SDS011;59614;51.012;-1.648;2023-02-28T15:47:29;6.55;;;3.90;;
71108;SDS011;59614;51.012;-1.648;2023-02-28T15:55:06;8.50;;;4.30;;
71108;SDS011;59614;51.012;-1.648;2023-02-28T15:57:38;8.93;;;4.95;;
71108;SDS011;59614;51.012;-1.648;2023-02-28T16:00:06;9.82;;;5.10;;
71108;SDS011;59614;51.012;-1.648;2023-02-28T16:02:37;7.75;;;4.40;;
71108;SDS011;59614;51.012;-1.648;2023-02-28T16:09:57;8.55;;;5.25;;
71108;SDS011;59614;51.012;-1.648;2023-02-28T16:12:25;10.20;;;5.85;;
71108;SDS011;59614;51.012;-1.648;2023-02-28T16:14:52;11.35;;;5.70;;
71108;SDS011;59614;51.012;-1.648;2023-02-28T16:17:21;10.00;;;5.32;;
71108;SDS011;59614;51.012;-1.648;2023-02-28T16:19:49;7.70;;;4.57;;
71108;SDS011;59614;51.012;-1.648;2023-02-28T16:22:15;6.93;;;4.22;;
71108;SDS011;59614;51.012;-1.648;2023-02-28T16:24:41;11.10;;;7.03;;
71108;SDS011;59614;51.012;-1.648;2023-02-28T16:27:06;11.18;;;5.97;;
71108;SDS011;59614;51.012;-1.648;2023-02-28T16:29:42;13.20;;;6.45;;
71108;SDS011;59614;51.012;-1.648;2023-02-28T16:32:07;5.05;;;3.22;;
71108;SDS011;59614;51.012;-1.648;2023-02-28T16:34:33;4.75;;;2.95;;
71108;SDS011;59614;51.012;-1.648;2023-02-28T16:36:58;4.25;;;2.70;;
71108;SDS011;59614;51.012;-1.648;2023-02-28T16:39:24;4.53;;;2.65;;
71108;SDS011;59614;51.012;-1.648;2023-02-28T16:41:49;7.47;;;2.78;;
71108;SDS011;59614;51.012;-1.648;2023-02-28T16:44:34;4.35;;;2.88;;
71108;SDS011;59614;51.012;-1.648;2023-02-28T16:47:00;4.63;;;2.63;;
71108;SDS011;59614;51.012;-1.648;2023-02-28T16:49:27;5.78;;;2.75;;
71108;SDS011;59614;51.012;-1.648;2023-02-28T16:51:53;4.80;;;2.55;;
71108;SDS011;59614;51.012;-1.648;2023-02-28T16:54:19;4.38;;;2.78;;
71108;SDS011;59614;51.012;-1.648;2023-02-28T16:56:45;9.30;;;3.58;;
71108;SDS011;59614;51.012;-1.648;2023-02-28T16:59:12;7.80;;;4.25;;
71108;SDS011;59614;51.012;-1.648;2023-02-28T17:01:39;9.15;;;4.30;;
71108;SDS011;59614;51.012;-1.648;2023-02-28T17:04:05;5.35;;;3.45;;
71108;SDS011;59614;51.012;-1.648;2023-02-28T17:06:30;7.13;;;3.72;;
71108;SDS011;59614;51.012;-1.648;2023-02-28T17:08:57;5.35;;;3.15;;
71108;SDS011;59614;51.012;-1.648;2023-02-28T17:11:23;8.65;;;3.33;;
71108;SDS011;59614;51.012;-1.648;2023-02-28T17:13:49;4.95;;;3.33;;
71108;SDS011;59614;51.012;-1.648;2023-02-28T17:16:17;4.88;;;3.20;;
71108;SDS011;59614;51.012;-1.648;2023-02-28T17:18:58;5.43;;;2.88;;
71108;SDS011;59614;51.012;-1.648;2023-02-28T17:21:24;4.80;;;2.90;;
71108;SDS011;59614;51.012;-1.648;2023-02-28T17:23:50;7.13;;;3.30;;
71108;SDS011;59614;51.012;-1.648;2023-02-28T17:26:16;5.15;;;3.10;;
71108;SDS011;59614;51.012;-1.648;2023-02-28T17:28:45;5.65;;;3.80;;
71108;SDS011;59614;51.012;-1.648;2023-02-28T17:31:11;5.53;;;3.30;;
71108;SDS011;59614;51.012;-1.648;2023-02-28T17:33:37;6.68;;;3.22;;
71108;SDS011;59614;51.012;-1.648;2023-02-28T17:36:03;5.50;;;3.78;;
71108;SDS011;59614;51.012;-1.648;2023-02-28T17:38:29;7.45;;;4.38;;
71108;SDS011;59614;51.012;-1.648;2023-02-28T17:40:54;6.05;;;3.72;;
71108;SDS011;59614;51.012;-1.648;2023-02-28T17:43:23;5.00;;;3.47;;
71108;SDS011;59614;51.012;-1.648;2023-02-28T17:45:49;4.72;;;3.30;;
71108;SDS011;59614;51.012;-1.648;2023-02-28T17:48:14;7.53;;;3.70;;
71108;SDS011;59614;51.012;-1.648;2023-02-28T17:50:40;11.10;;;3.83;;
71108;SDS011;59614;51.012;-1.648;2023-02-28T17:53:05;4.70;;;3.22;;